createdAt,value
2019-02-26T00:00:51.937Z,7.30
2019-02-26T00:01:59.768Z,7.95
2019-02-26T00:03:04.760Z,7.80
2019-02-26T00:04:10.500Z,9.08
2019-02-26T00:05:17.360Z,8.53
2019-02-26T00:06:24.798Z,8.75
2019-02-26T00:07:32.075Z,8.53
2019-02-26T00:08:41.732Z,8.48
2019-02-26T00:09:51.197Z,8.50
2019-02-26T00:10:58.580Z,9.10
2019-02-26T00:12:02.404Z,8.08
2019-02-26T00:13:07.315Z,8.45
2019-02-26T00:14:20.244Z,8.35
2019-02-26T00:15:24.496Z,7.72
2019-02-26T00:16:29.835Z,8.93
2019-02-26T00:17:45.300Z,8.28
2019-02-26T00:18:51.256Z,8.10
2019-02-26T00:20:05.771Z,7.55
2019-02-26T00:21:10.861Z,6.65
2019-02-26T00:22:18.108Z,6.90
2019-02-26T00:23:23.731Z,7.05
2019-02-26T00:24:35.040Z,6.20
2019-02-26T00:25:43.702Z,6.92
2019-02-26T00:26:56.149Z,6.58
2019-02-26T00:28:11.550Z,8.23
2019-02-26T00:29:16.495Z,6.47
2019-02-26T00:30:21.328Z,6.40
2019-02-26T00:31:28.752Z,5.92
2019-02-26T00:32:33.911Z,6.83
2019-02-26T00:33:43.386Z,7.55
2019-02-26T00:34:48.399Z,6.97
2019-02-26T00:35:53.337Z,6.15
2019-02-26T00:37:00.027Z,7.62
2019-02-26T00:38:06.183Z,7.03
2019-02-26T00:39:11.460Z,6.85
2019-02-26T00:40:19.547Z,7.03
2019-02-26T00:41:24.681Z,8.10
2019-02-26T00:42:32.007Z,7.65
2019-02-26T00:43:37.189Z,8.15
2019-02-26T00:44:42.027Z,9.60
2019-02-26T00:45:46.897Z,11.40
2019-02-26T00:46:55.395Z,11.63
2019-02-26T00:48:00.250Z,12.63
2019-02-26T00:49:07.454Z,11.05
2019-02-26T00:50:14.071Z,11.15
2019-02-26T00:51:21.037Z,11.18
2019-02-26T00:52:25.903Z,11.45
2019-02-26T00:53:32.886Z,11.12
2019-02-26T00:54:37.383Z,11.57
2019-02-26T00:55:42.427Z,11.05
2019-02-26T00:56:47.646Z,10.23
2019-02-26T00:57:52.599Z,8.98
2019-02-26T00:58:59.455Z,9.73
2019-02-26T01:00:05.330Z,8.88
2019-02-26T01:01:12.962Z,7.85
2019-02-26T01:02:18.196Z,8.05
2019-02-26T01:03:23.355Z,7.42
2019-02-26T01:04:28.590Z,7.37
2019-02-26T01:05:34.046Z,7.12
2019-02-26T01:06:39.953Z,6.60
2019-02-26T01:07:47.416Z,7.45
2019-02-26T01:08:52.150Z,7.47
2019-02-26T01:09:59.224Z,7.10
2019-02-26T01:11:07.765Z,7.05
2019-02-26T01:12:13.658Z,6.00
2019-02-26T01:13:20.273Z,5.95
2019-02-26T01:14:25.169Z,6.90
2019-02-26T01:15:30.035Z,6.83
2019-02-26T01:16:37.134Z,6.65
2019-02-26T01:17:42.245Z,7.72
2019-02-26T01:18:49.369Z,7.85
2019-02-26T01:19:58.766Z,6.83
2019-02-26T01:21:04.304Z,7.55
2019-02-26T01:22:09.733Z,7.47
2019-02-26T01:23:16.459Z,7.25
2019-02-26T01:24:23.545Z,7.55
2019-02-26T01:25:28.314Z,8.08
2019-02-26T01:26:33.307Z,7.45
2019-02-26T01:27:38.213Z,8.35
2019-02-26T01:28:46.172Z,7.35
2019-02-26T01:29:53.195Z,7.95
2019-02-26T01:30:57.926Z,8.50
2019-02-26T01:32:03.216Z,8.53
2019-02-26T01:33:09.699Z,7.67
2019-02-26T01:34:15.859Z,7.95
2019-02-26T01:35:21.479Z,8.18
2019-02-26T01:36:26.362Z,6.83
2019-02-26T01:37:36.174Z,7.97
2019-02-26T01:38:41.666Z,6.70
2019-02-26T01:39:49.600Z,7.45
2019-02-26T01:40:55.869Z,8.23
2019-02-26T01:42:00.504Z,6.75
2019-02-26T01:43:05.661Z,7.75
2019-02-26T01:44:10.648Z,6.35
2019-02-26T01:45:15.671Z,6.50
2019-02-26T01:46:20.513Z,6.55
2019-02-26T01:47:26.372Z,8.18
2019-02-26T01:48:32.180Z,6.45
2019-02-26T01:49:39.775Z,5.95
2019-02-26T01:50:44.937Z,6.87
2019-02-26T01:51:51.689Z,7.25
2019-02-26T01:52:58.511Z,6.95
2019-02-26T01:54:02.845Z,7.95
2019-02-26T01:55:09.433Z,6.08
2019-02-26T01:56:14.349Z,6.08
2019-02-26T01:57:19.161Z,6.70
2019-02-26T01:58:24.973Z,6.03
2019-02-26T01:59:31.748Z,4.80
2019-02-26T02:00:36.333Z,6.17
2019-02-26T02:01:44.183Z,6.60
2019-02-26T02:02:48.177Z,5.50
2019-02-26T02:03:55.845Z,5.80
2019-02-26T02:05:00.134Z,6.60
2019-02-26T02:06:06.642Z,6.45
2019-02-26T02:07:12.541Z,6.00
2019-02-26T02:08:18.607Z,6.70
2019-02-26T02:09:25.149Z,6.60
2019-02-26T02:10:30.391Z,6.60
2019-02-26T02:11:37.611Z,6.58
2019-02-26T02:12:42.549Z,6.92
2019-02-26T02:13:49.018Z,6.15
2019-02-26T02:14:53.814Z,6.28
2019-02-26T02:15:59.733Z,6.80
2019-02-26T02:17:08.504Z,6.50
2019-02-26T02:18:14.461Z,7.10
2019-02-26T02:19:22.264Z,5.25
2019-02-26T02:20:26.261Z,5.50
2019-02-26T02:21:33.267Z,5.87
2019-02-26T02:22:39.842Z,5.03
2019-02-26T02:23:46.544Z,5.47
2019-02-26T02:24:53.529Z,5.20
2019-02-26T02:26:02.184Z,6.35
2019-02-26T02:27:04.786Z,6.50
2019-02-26T02:28:09.674Z,5.67
2019-02-26T02:29:16.546Z,5.75
2019-02-26T02:30:26.765Z,5.90
2019-02-26T02:31:31.391Z,6.10
2019-02-26T02:32:34.569Z,6.45
2019-02-26T02:33:39.483Z,6.40
2019-02-26T02:34:44.294Z,7.40
2019-02-26T02:35:49.106Z,6.80
2019-02-26T02:36:54.074Z,6.83
2019-02-26T02:38:01.700Z,7.37
2019-02-26T02:39:10.362Z,6.58
2019-02-26T02:40:14.049Z,5.87
2019-02-26T02:41:18.881Z,6.47
2019-02-26T02:42:23.828Z,7.95
2019-02-26T02:43:29.177Z,6.37
2019-02-26T02:44:34.449Z,6.50
2019-02-26T02:45:43.079Z,6.85
2019-02-26T02:46:47.908Z,6.17
2019-02-26T02:47:57.706Z,6.33
2019-02-26T02:48:59.408Z,6.35
2019-02-26T02:50:09.156Z,7.47
2019-02-26T02:51:13.814Z,6.03
2019-02-26T02:52:18.926Z,7.72
2019-02-26T02:53:24.522Z,6.25
2019-02-26T02:54:30.233Z,6.08
2019-02-26T02:55:37.757Z,5.83
2019-02-26T02:56:44.337Z,5.20
2019-02-26T02:57:52.363Z,6.55
2019-02-26T02:58:55.683Z,7.12
2019-02-26T03:00:02.627Z,5.92
2019-02-26T03:01:07.106Z,6.47
2019-02-26T03:02:14.416Z,6.47
2019-02-26T03:03:19.049Z,5.70
2019-02-26T03:04:27.863Z,6.78
2019-02-26T03:05:32.115Z,6.42
2019-02-26T03:06:38.682Z,6.62
2019-02-26T03:07:46.016Z,6.58
2019-02-26T03:08:51.097Z,6.60
2019-02-26T03:09:57.937Z,6.15
2019-02-26T03:11:03.847Z,7.05
2019-02-26T03:12:08.690Z,5.53
2019-02-26T03:13:14.423Z,5.80
2019-02-26T03:14:20.663Z,6.45
2019-02-26T03:15:27.362Z,5.95
2019-02-26T03:16:32.614Z,6.47
2019-02-26T03:17:37.458Z,5.78
2019-02-26T03:18:45.377Z,6.87
2019-02-26T03:19:50.190Z,5.65
2019-02-26T03:20:56.702Z,6.33
2019-02-26T03:22:01.467Z,4.97
2019-02-26T03:23:08.687Z,5.37
2019-02-26T03:24:12.955Z,6.78
2019-02-26T03:25:20.986Z,5.75
2019-02-26T03:26:25.923Z,6.50
2019-02-26T03:27:33.642Z,6.72
2019-02-26T03:28:39.501Z,5.75
2019-02-26T03:29:45.065Z,6.55
2019-02-26T03:30:50.537Z,6.12
2019-02-26T03:31:55.620Z,6.20
2019-02-26T03:33:04.463Z,6.60
2019-02-26T03:34:10.428Z,6.55
2019-02-26T03:35:16.651Z,6.92
2019-02-26T03:36:21.789Z,5.78
2019-02-26T03:37:28.817Z,7.08
2019-02-26T03:38:33.284Z,6.47
2019-02-26T03:39:38.467Z,6.25
2019-02-26T03:40:43.247Z,6.95
2019-02-26T03:41:48.638Z,6.70
2019-02-26T03:42:54.517Z,6.67
2019-02-26T03:44:00.680Z,6.50
2019-02-26T03:45:04.598Z,6.72
2019-02-26T03:46:10.509Z,7.00
2019-02-26T03:47:16.279Z,7.15
2019-02-26T03:48:21.317Z,8.13
2019-02-26T03:49:27.029Z,6.87
2019-02-26T03:50:31.433Z,6.62
2019-02-26T03:51:39.102Z,7.42
2019-02-26T03:52:43.248Z,7.08
2019-02-26T03:53:48.108Z,8.93
2019-02-26T03:54:52.987Z,8.85
2019-02-26T03:56:02.010Z,8.28
2019-02-26T03:57:04.904Z,9.25
2019-02-26T03:58:09.734Z,8.10
2019-02-26T03:59:14.606Z,7.92
2019-02-26T04:00:20.431Z,7.75
2019-02-26T04:01:25.537Z,7.05
2019-02-26T04:02:30.311Z,7.72
2019-02-26T04:03:37.087Z,7.40
2019-02-26T04:04:41.813Z,7.50
2019-02-26T04:05:46.651Z,6.67
2019-02-26T04:06:51.448Z,6.80
2019-02-26T04:07:58.918Z,7.15
2019-02-26T04:09:02.870Z,7.95
2019-02-26T04:10:08.761Z,7.12
2019-02-26T04:11:13.799Z,6.53
2019-02-26T04:12:20.918Z,7.35
2019-02-26T04:13:25.836Z,7.10
2019-02-26T04:14:30.765Z,8.80
2019-02-26T04:15:36.450Z,9.30
2019-02-26T04:16:43.603Z,8.58
2019-02-26T04:17:48.651Z,7.67
2019-02-26T04:18:53.422Z,7.03
2019-02-26T04:19:58.267Z,7.08
2019-02-26T04:21:05.738Z,7.75
2019-02-26T04:22:31.278Z,6.37
2019-02-26T04:23:38.953Z,6.65
2019-02-26T04:24:42.636Z,7.12
2019-02-26T04:26:18.532Z,8.50
2019-02-26T04:28:02.659Z,7.90
2019-02-26T04:29:21.690Z,7.10
2019-02-26T04:33:24.368Z,9.03
2019-02-26T04:35:02.876Z,7.78
2019-02-26T04:36:25.432Z,8.13
2019-02-26T04:38:03.538Z,6.65
2019-02-26T04:39:53.287Z,7.28
2019-02-26T04:41:35.511Z,7.05
2019-02-26T04:43:15.381Z,6.75
2019-02-26T04:44:55.172Z,6.22
2019-02-26T04:46:39.553Z,6.37
2019-02-26T04:47:48.222Z,7.00
2019-02-26T04:48:50.883Z,7.40
2019-02-26T04:49:57.258Z,5.90
2019-02-26T04:51:02.209Z,6.42
2019-02-26T04:52:08.574Z,6.70
2019-02-26T04:53:13.763Z,5.95
2019-02-26T04:54:23.809Z,5.55
2019-02-26T04:55:27.191Z,6.45
2019-02-26T04:56:33.848Z,7.00
2019-02-26T04:57:40.179Z,7.15
2019-02-26T04:58:45.882Z,6.35
2019-02-26T04:59:51.118Z,6.83
2019-02-26T05:00:55.889Z,6.20
2019-02-26T05:02:00.861Z,6.70
2019-02-26T05:03:05.835Z,6.72
2019-02-26T05:04:11.628Z,6.08
2019-02-26T05:05:16.481Z,6.97
2019-02-26T05:06:20.533Z,6.67
2019-02-26T05:07:25.393Z,6.25
2019-02-26T05:08:32.099Z,6.65
2019-02-26T05:09:37.263Z,6.40
2019-02-26T05:10:48.921Z,6.72
2019-02-26T05:12:00.374Z,6.00
2019-02-26T05:13:24.596Z,6.53
2019-02-26T05:14:29.020Z,6.97
2019-02-26T05:15:39.215Z,7.28
2019-02-26T05:16:44.241Z,8.28
2019-02-26T05:17:49.667Z,6.95
2019-02-26T05:19:03.116Z,8.65
2019-02-26T05:20:16.545Z,7.00
2019-02-26T05:21:20.732Z,7.80
2019-02-26T05:22:27.672Z,8.95
2019-02-26T05:23:33.646Z,10.78
2019-02-26T05:24:41.462Z,7.25
2019-02-26T05:25:45.316Z,7.47
2019-02-26T05:26:50.113Z,7.37
2019-02-26T05:27:55.363Z,6.85
2019-02-26T05:29:00.445Z,6.97
2019-02-26T05:30:07.061Z,7.00
2019-02-26T05:31:14.482Z,7.78
2019-02-26T05:32:18.712Z,6.35
2019-02-26T05:33:25.260Z,5.83
2019-02-26T05:34:29.958Z,7.65
2019-02-26T05:35:37.829Z,6.40
2019-02-26T05:36:45.867Z,6.72
2019-02-26T05:37:49.679Z,7.10
2019-02-26T05:38:57.034Z,6.62
2019-02-26T05:40:14.956Z,7.62
2019-02-26T05:41:18.978Z,6.08
2019-02-26T05:42:24.027Z,7.28
2019-02-26T05:43:33.932Z,7.33
2019-02-26T05:44:37.552Z,6.45
2019-02-26T05:45:42.326Z,6.40
2019-02-26T05:46:49.649Z,7.40
2019-02-26T05:47:58.543Z,5.78
2019-02-26T05:49:12.584Z,6.62
2019-02-26T05:50:16.587Z,7.35
2019-02-26T05:51:21.065Z,7.05
2019-02-26T05:52:27.260Z,7.47
2019-02-26T05:53:32.494Z,7.37
2019-02-26T05:54:37.383Z,6.85
2019-02-26T05:55:44.344Z,7.22
2019-02-26T05:56:49.859Z,7.25
2019-02-26T05:58:00.955Z,7.00
2019-02-26T05:59:15.380Z,8.30
2019-02-26T06:00:33.077Z,8.60
2019-02-26T06:02:24.367Z,6.67
2019-02-26T06:03:34.491Z,7.42
2019-02-26T06:04:41.031Z,7.83
2019-02-26T06:05:48.938Z,6.72
2019-02-26T06:07:04.736Z,8.15
2019-02-26T06:08:11.966Z,6.97
2019-02-26T06:09:24.930Z,7.78
2019-02-26T06:10:30.438Z,8.00
2019-02-26T06:11:36.799Z,8.45
2019-02-26T06:12:48.086Z,7.42
2019-02-26T06:13:55.531Z,7.60
2019-02-26T06:15:04.099Z,6.87
2019-02-26T06:16:09.089Z,7.53
2019-02-26T06:17:15.486Z,6.72
2019-02-26T06:18:25.376Z,7.50
2019-02-26T06:19:45.200Z,6.78
2019-02-26T06:20:51.583Z,8.40
2019-02-26T06:22:03.536Z,7.15
2019-02-26T06:23:08.802Z,7.30
2019-02-26T06:24:24.395Z,7.47
2019-02-26T06:25:28.175Z,8.05
2019-02-26T06:26:36.075Z,7.08
2019-02-26T06:27:40.359Z,7.45
2019-02-26T06:28:52.839Z,8.40
2019-02-26T06:30:00.093Z,6.78
2019-02-26T06:31:07.386Z,7.22
2019-02-26T06:32:14.552Z,8.60
2019-02-26T06:33:19.757Z,7.22
2019-02-26T06:34:24.731Z,7.03
2019-02-26T06:36:08.157Z,6.83
2019-02-26T06:37:35.408Z,6.03
2019-02-26T06:38:38.682Z,7.05
2019-02-26T06:39:43.551Z,6.72
2019-02-26T06:40:52.584Z,6.72
2019-02-26T06:42:05.123Z,6.70
2019-02-26T06:43:09.133Z,8.20
2019-02-26T06:44:13.918Z,6.70
2019-02-26T06:45:18.732Z,7.80
2019-02-26T06:46:26.209Z,7.22
2019-02-26T06:47:31.559Z,8.83
2019-02-26T06:48:40.354Z,7.78
2019-02-26T06:49:47.957Z,7.37
2019-02-26T06:50:52.747Z,7.45
2019-02-26T06:52:00.239Z,6.90
2019-02-26T06:53:08.534Z,8.05
2019-02-26T06:54:15.370Z,6.55
2019-02-26T06:55:19.712Z,8.08
2019-02-26T06:56:25.246Z,8.15
2019-02-26T06:57:34.688Z,8.25
2019-02-26T06:58:44.959Z,6.92
2019-02-26T06:59:50.823Z,6.83
2019-02-26T07:01:01.497Z,7.28
2019-02-26T07:02:08.807Z,7.08
2019-02-26T07:03:32.853Z,7.47
2019-02-26T07:04:38.473Z,7.80
2019-02-26T07:05:46.466Z,7.28
2019-02-26T07:06:59.180Z,9.15
2019-02-26T07:08:04.266Z,8.03
2019-02-26T07:09:10.830Z,7.70
2019-02-26T07:10:18.358Z,7.00
2019-02-26T07:11:21.709Z,7.35
2019-02-26T07:12:28.126Z,8.18
2019-02-26T07:13:33.945Z,7.87
2019-02-26T07:14:39.460Z,8.40
2019-02-26T07:15:49.513Z,9.35
2019-02-26T07:16:56.544Z,8.60
2019-02-26T07:18:04.409Z,7.30
2019-02-26T07:19:09.636Z,8.43
2019-02-26T07:20:15.208Z,8.20
2019-02-26T07:21:20.991Z,7.55
2019-02-26T07:22:26.482Z,8.00
2019-02-26T07:23:34.578Z,8.50
2019-02-26T07:24:38.568Z,7.87
2019-02-26T07:25:44.167Z,7.75
2019-02-26T07:26:49.410Z,7.33
2019-02-26T07:28:02.948Z,8.10
2019-02-26T07:30:54.140Z,8.55
2019-02-26T07:32:07.669Z,7.78
2019-02-26T07:33:27.852Z,7.17
2019-02-26T07:34:44.584Z,8.30
2019-02-26T07:35:48.727Z,7.40
2019-02-26T07:36:56.654Z,7.75
2019-02-26T07:38:03.661Z,7.08
2019-02-26T07:39:10.929Z,10.35
2019-02-26T07:40:18.018Z,9.03
2019-02-26T07:41:23.189Z,7.53
2019-02-26T07:42:32.693Z,8.50
2019-02-26T07:43:38.715Z,9.43
2019-02-26T07:44:41.213Z,8.75
2019-02-26T07:45:47.007Z,8.48
2019-02-26T07:46:51.186Z,8.95
2019-02-26T07:47:58.326Z,9.28
2019-02-26T07:49:04.858Z,9.53
2019-02-26T07:50:09.721Z,8.83
2019-02-26T07:51:15.761Z,9.05
2019-02-26T07:52:21.573Z,9.65
2019-02-26T07:53:27.070Z,8.13
2019-02-26T07:54:31.176Z,7.97
2019-02-26T07:55:38.200Z,7.53
2019-02-26T07:56:44.503Z,7.45
2019-02-26T07:58:00.573Z,6.72
2019-02-26T07:59:09.449Z,7.45
2019-02-26T08:00:15.368Z,7.47
2019-02-26T08:01:20.492Z,7.25
2019-02-26T08:02:27.768Z,7.15
2019-02-26T08:03:35.093Z,6.55
2019-02-26T08:04:41.787Z,6.42
2019-02-26T08:05:46.640Z,7.42
2019-02-26T08:06:52.331Z,7.62
2019-02-26T08:07:56.998Z,8.30
2019-02-26T08:09:04.642Z,8.15
2019-02-26T08:10:12.348Z,8.10
2019-02-26T08:11:18.196Z,7.62
2019-02-26T08:12:23.919Z,7.05
2019-02-26T08:13:31.709Z,7.67
2019-02-26T08:14:40.191Z,7.50
2019-02-26T08:15:45.131Z,7.60
2019-02-26T08:17:06.270Z,6.95
2019-02-26T08:18:11.261Z,6.67
2019-02-26T08:19:16.184Z,8.18
2019-02-26T08:20:22.795Z,7.15
2019-02-26T08:21:29.569Z,7.40
2019-02-26T08:22:37.381Z,8.00
2019-02-26T08:23:38.989Z,10.63
2019-02-26T08:24:45.546Z,9.15
2019-02-26T08:25:52.448Z,10.60
2019-02-26T08:26:57.656Z,10.45
2019-02-26T08:28:05.137Z,9.48
2019-02-26T08:29:09.939Z,9.60
2019-02-26T08:30:18.824Z,9.40
2019-02-26T08:31:23.319Z,8.88
2019-02-26T08:32:30.468Z,8.65
2019-02-26T08:33:38.511Z,10.15
2019-02-26T08:34:52.649Z,8.78
2019-02-26T08:35:58.889Z,7.60
2019-02-26T08:37:03.193Z,9.13
2019-02-26T08:38:16.224Z,8.05
2019-02-26T08:39:20.774Z,8.70
2019-02-26T08:40:26.009Z,7.67
2019-02-26T08:41:30.525Z,9.45
2019-02-26T08:42:36.369Z,9.80
2019-02-26T08:43:44.159Z,9.25
2019-02-26T08:44:48.671Z,9.20
2019-02-26T08:45:53.145Z,8.60
2019-02-26T08:46:57.239Z,7.62
2019-02-26T08:48:01.936Z,7.70
2019-02-26T08:49:20.274Z,9.05
2019-02-26T08:50:24.084Z,7.42
2019-02-26T08:51:28.180Z,7.35
2019-02-26T08:52:32.316Z,7.50
2019-02-26T08:55:24.540Z,7.60
2019-02-26T09:00:02.217Z,6.43
2019-02-26T09:01:50.125Z,7.55
2019-02-26T09:02:56.702Z,7.40
2019-02-26T09:04:06.620Z,7.08
2019-02-26T09:08:01.585Z,6.30
2019-02-26T09:09:33.262Z,5.83
2019-02-26T09:10:43.788Z,7.42
2019-02-26T09:11:52.792Z,6.08
2019-02-26T09:12:56.579Z,6.40
2019-02-26T09:14:03.883Z,6.95
2019-02-26T09:15:12.104Z,7.55
2019-02-26T09:16:25.094Z,7.95
2019-02-26T09:17:31.844Z,7.95
2019-02-26T09:18:38.225Z,7.75
2019-02-26T09:19:44.154Z,8.68
2019-02-26T09:20:49.658Z,7.47
2019-02-26T09:21:54.754Z,7.83
2019-02-26T09:23:02.524Z,7.87
2019-02-26T09:24:10.101Z,8.20
2019-02-26T09:25:20.416Z,7.70
2019-02-26T09:26:26.529Z,9.30
2019-02-26T09:27:35.082Z,8.55
2019-02-26T09:28:47.537Z,8.90
2019-02-26T09:29:51.835Z,8.63
2019-02-26T09:31:00.961Z,9.73
2019-02-26T09:32:06.742Z,8.83
2019-02-26T09:33:18.544Z,7.45
2019-02-26T09:34:26.673Z,7.30
2019-02-26T09:35:42.298Z,8.10
2019-02-26T09:36:50.657Z,8.38
2019-02-26T09:37:55.614Z,8.70
2019-02-26T09:39:00.046Z,8.90
2019-02-26T09:40:14.344Z,7.70
2019-02-26T09:41:21.483Z,7.72
2019-02-26T09:42:27.837Z,8.58
2019-02-26T09:43:32.733Z,7.33
2019-02-26T09:44:40.683Z,7.78
2019-02-26T09:45:48.242Z,8.48
2019-02-26T09:46:55.359Z,7.90
2019-02-26T09:48:01.285Z,8.30
2019-02-26T09:49:09.962Z,8.33
2019-02-26T09:50:17.566Z,7.50
2019-02-26T09:51:25.665Z,8.78
2019-02-26T09:52:32.564Z,8.20
2019-02-26T09:53:37.215Z,8.95
2019-02-26T09:54:45.201Z,7.28
2019-02-26T09:55:52.076Z,7.75
2019-02-26T09:56:59.106Z,8.08
2019-02-26T09:58:06.103Z,5.90
2019-02-26T09:59:14.839Z,5.65
2019-02-26T10:00:23.591Z,5.10
2019-02-26T10:01:30.575Z,6.40
2019-02-26T10:02:35.206Z,5.47
2019-02-26T10:03:41.446Z,5.53
2019-02-26T10:04:49.610Z,5.90
2019-02-26T10:05:55.999Z,5.55
2019-02-26T10:07:07.552Z,7.10
2019-02-26T10:08:17.297Z,6.50
2019-02-26T10:09:43.273Z,6.20
2019-02-26T10:17:47.516Z,6.30
2019-02-26T10:18:56.721Z,6.25
2019-02-26T10:20:04.991Z,6.28
2019-02-26T10:21:20.352Z,6.35
2019-02-26T10:22:49.313Z,7.33
2019-02-26T10:23:56.814Z,7.22
2019-02-26T10:25:23.254Z,6.58
2019-02-26T10:26:30.761Z,6.67
2019-02-26T10:27:38.817Z,5.97
2019-02-26T10:28:46.954Z,6.67
2019-02-26T10:29:52.067Z,6.25
2019-02-26T10:31:01.784Z,7.78
2019-02-26T10:32:06.724Z,6.75
2019-02-26T10:33:17.439Z,7.10
2019-02-26T10:34:25.620Z,7.00
2019-02-26T10:35:38.881Z,6.85
2019-02-26T10:36:49.700Z,6.05
2019-02-26T10:37:57.072Z,7.00
2019-02-26T10:39:07.374Z,6.60
2019-02-26T10:40:14.445Z,6.83
2019-02-26T10:41:21.137Z,7.25
2019-02-26T10:42:26.655Z,7.22
2019-02-26T10:43:32.022Z,6.47
2019-02-26T10:44:38.684Z,7.70
2019-02-26T10:45:47.286Z,7.60
2019-02-26T10:46:50.935Z,8.55
2019-02-26T10:47:56.925Z,7.50
2019-02-26T10:49:03.431Z,9.05
2019-02-26T10:50:13.125Z,13.22
2019-02-26T10:51:18.443Z,8.58
2019-02-26T10:53:06.724Z,9.73
2019-02-26T10:54:08.700Z,8.68
2019-02-26T10:55:15.010Z,9.05
2019-02-26T10:56:19.055Z,9.98
2019-02-26T10:57:26.445Z,9.20
2019-02-26T10:59:27.103Z,8.83
2019-02-26T11:00:35.276Z,8.33
2019-02-26T11:01:41.999Z,7.50
2019-02-26T11:02:48.451Z,8.93
2019-02-26T11:04:05.187Z,8.30
2019-02-26T11:05:14.374Z,8.75
2019-02-26T11:06:22.141Z,7.00
2019-02-26T11:07:55.733Z,7.22
2019-02-26T11:09:08.997Z,6.83
2019-02-26T11:10:41.341Z,7.05
2019-02-26T11:12:13.134Z,7.40
2019-02-26T11:13:28.233Z,7.00
2019-02-26T11:14:36.226Z,7.30
2019-02-26T11:15:43.674Z,7.33
2019-02-26T11:16:55.139Z,7.90
2019-02-26T11:18:03.115Z,7.92
2019-02-26T11:19:14.464Z,7.30
2019-02-26T11:20:27.055Z,7.50
2019-02-26T11:21:50.064Z,7.33
2019-02-26T11:22:58.465Z,7.60
2019-02-26T11:24:04.145Z,6.47
2019-02-26T11:25:16.368Z,6.20
2019-02-26T11:26:54.064Z,6.90
2019-02-26T11:28:49.489Z,6.37
2019-02-26T11:29:57.672Z,6.30
2019-02-26T11:31:02.626Z,6.95
2019-02-26T11:32:10.251Z,6.20
2019-02-26T11:33:22.833Z,32.48
2019-02-26T11:34:30.396Z,23.55
2019-02-26T11:35:34.761Z,26.12
2019-02-26T11:36:45.271Z,17.65
2019-02-26T11:37:52.264Z,13.43
2019-02-26T11:39:11.905Z,13.15
2019-02-26T11:40:24.801Z,9.70
2019-02-26T11:41:33.270Z,8.90
2019-02-26T11:42:39.906Z,9.05
2019-02-26T11:43:48.396Z,8.48
2019-02-26T11:44:54.252Z,8.65
2019-02-26T11:46:01.480Z,8.30
2019-02-26T11:47:11.234Z,8.15
2019-02-26T11:48:17.605Z,8.13
2019-02-26T11:49:37.005Z,8.18
2019-02-26T11:50:44.527Z,6.75
2019-02-26T11:51:55.380Z,8.28
2019-02-26T11:53:03.294Z,9.63
2019-02-26T11:54:15.670Z,8.50
2019-02-26T11:55:24.243Z,8.65
2019-02-26T11:56:38.506Z,9.50
2019-02-26T11:57:49.807Z,9.00
2019-02-26T11:58:55.253Z,8.53
2019-02-26T12:00:01.980Z,10.05
2019-02-26T12:01:13.279Z,95.25
2019-02-26T12:02:26.688Z,95.40
2019-02-26T12:03:38.983Z,49.20
2019-02-26T12:04:49.561Z,27.40
2019-02-26T12:05:56.627Z,15.68
2019-02-26T12:07:09.824Z,15.05
2019-02-26T12:08:16.743Z,16.10
2019-02-26T12:09:22.665Z,10.68
2019-02-26T12:10:30.538Z,13.53
2019-02-26T12:11:34.751Z,12.23
2019-02-26T12:12:40.348Z,7.33
2019-02-26T12:13:53.184Z,10.10
2019-02-26T12:15:06.627Z,9.80
2019-02-26T12:16:14.105Z,7.97
2019-02-26T12:17:19.526Z,5.47
2019-02-26T12:18:26.236Z,6.65
2019-02-26T12:19:39.372Z,8.88
2019-02-26T12:21:20.548Z,8.58
2019-02-26T12:22:36.089Z,8.83
2019-02-26T12:23:43.478Z,15.58
2019-02-26T12:24:55.775Z,20.68
2019-02-26T12:28:09.074Z,9.63
2019-02-26T12:29:29.083Z,10.55
2019-02-26T12:30:43.904Z,6.80
2019-02-26T12:31:50.264Z,8.10
2019-02-26T12:32:55.645Z,8.98
2019-02-26T12:34:04.729Z,8.40
2019-02-26T12:35:20.340Z,6.85
2019-02-26T12:36:29.853Z,7.67
2019-02-26T12:37:40.716Z,7.15
2019-02-26T12:38:48.232Z,7.12
2019-02-26T12:39:55.493Z,7.30
2019-02-26T12:41:08.178Z,6.28
2019-02-26T12:42:15.837Z,6.00
2019-02-26T12:43:22.995Z,5.78
2019-02-26T12:44:37.439Z,5.80
2019-02-26T12:46:38.043Z,5.50
2019-02-26T12:47:45.540Z,5.83
2019-02-26T12:48:50.344Z,5.85
2019-02-26T12:49:58.709Z,5.47
2019-02-26T12:51:44.102Z,5.12
2019-02-26T12:52:57.038Z,5.50
2019-02-26T12:54:03.503Z,4.72
2019-02-26T12:55:10.546Z,5.30
2019-02-26T12:56:16.595Z,5.10
2019-02-26T12:57:23.773Z,5.55
2019-02-26T12:58:30.106Z,6.00
2019-02-26T12:59:36.438Z,5.17
2019-02-26T13:00:45.098Z,5.35
2019-02-26T13:01:51.851Z,5.37
2019-02-26T13:02:57.513Z,5.72
2019-02-26T13:04:02.518Z,5.55
2019-02-26T13:05:13.460Z,5.50
2019-02-26T13:06:22.806Z,6.65
2019-02-26T13:07:29.778Z,5.50
2019-02-26T13:08:54.220Z,5.47
2019-02-26T13:10:03.363Z,5.28
2019-02-26T13:11:06.332Z,5.90
2019-02-26T13:12:12.650Z,6.10
2019-02-26T13:13:17.913Z,5.83
2019-02-26T13:14:26.400Z,5.40
2019-02-26T13:15:34.715Z,6.12
2019-02-26T13:16:39.899Z,5.45
2019-02-26T13:17:54.652Z,5.60
2019-02-26T13:19:04.363Z,9.18
2019-02-26T13:20:15.781Z,5.70
2019-02-26T13:21:26.311Z,5.87
2019-02-26T13:22:31.191Z,6.05
2019-02-26T13:23:43.082Z,7.60
2019-02-26T13:24:51.201Z,5.90
2019-02-26T13:25:57.007Z,9.48
2019-02-26T13:27:16.239Z,6.05
2019-02-26T13:28:37.903Z,6.03
2019-02-26T13:29:47.478Z,7.67
2019-02-26T13:30:50.591Z,7.47
2019-02-26T13:33:11.092Z,6.70
2019-02-26T13:35:58.800Z,6.83
2019-02-26T13:37:00.445Z,8.05
2019-02-26T13:38:14.428Z,8.75
2019-02-26T13:39:29.950Z,6.65
2019-02-26T13:40:38.717Z,10.45
2019-02-26T13:41:46.960Z,8.75
2019-02-26T13:44:12.558Z,13.38
2019-02-26T13:45:19.621Z,10.30
2019-02-26T13:46:26.396Z,10.88
2019-02-26T13:47:34.535Z,11.35
2019-02-26T13:48:42.721Z,15.85
2019-02-26T13:49:48.556Z,10.63
2019-02-26T13:50:59.187Z,8.73
2019-02-26T13:52:05.021Z,10.63
2019-02-26T13:53:21.378Z,12.93
2019-02-26T13:54:26.851Z,11.48
2019-02-26T13:55:32.667Z,11.18
2019-02-26T13:56:40.316Z,10.43
2019-02-26T13:57:45.894Z,13.90
2019-02-26T13:58:50.928Z,17.15
2019-02-26T13:59:57.801Z,12.15
2019-02-26T14:01:09.178Z,14.00
2019-02-26T14:02:25.648Z,9.23
2019-02-26T14:03:30.715Z,9.55
2019-02-26T14:05:06.270Z,11.68
2019-02-26T14:10:47.706Z,7.87
2019-02-26T14:11:54.089Z,11.08
2019-02-26T14:13:52.987Z,8.70
2019-02-26T14:17:41.259Z,11.05
2019-02-26T14:18:49.084Z,20.17
2019-02-26T14:20:08.626Z,18.80
2019-02-26T14:21:19.280Z,30.15
2019-02-26T14:22:35.600Z,24.07
2019-02-26T14:23:41.814Z,30.48
2019-02-26T14:24:47.413Z,18.75
2019-02-26T14:26:03.564Z,21.57
2019-02-26T14:27:10.907Z,25.48
2019-02-26T14:28:18.505Z,15.05
2019-02-26T14:29:36.323Z,20.15
2019-02-26T14:30:44.195Z,10.28
2019-02-26T14:31:53.081Z,11.83
2019-02-26T14:32:59.672Z,21.97
2019-02-26T14:34:28.670Z,44.42
2019-02-26T14:35:42.158Z,36.40
2019-02-26T14:36:55.820Z,32.42
2019-02-26T14:38:03.280Z,25.77
2019-02-26T14:39:08.786Z,17.42
2019-02-26T14:40:23.130Z,21.35
2019-02-26T14:41:31.412Z,18.37
2019-02-26T14:42:43.599Z,25.45
2019-02-26T14:43:49.490Z,19.77
2019-02-26T14:44:58.705Z,18.67
2019-02-26T14:46:17.382Z,19.45
2019-02-26T14:47:25.084Z,15.50
2019-02-26T14:48:31.652Z,17.60
2019-02-26T14:49:53.958Z,11.08
2019-02-26T14:51:01.047Z,13.25
2019-02-26T14:52:22.108Z,17.05
2019-02-26T14:53:42.746Z,9.65
2019-02-26T14:54:51.387Z,9.83
2019-02-26T15:28:20.250Z,17.13
2019-02-26T15:29:24.441Z,16.75
2019-02-26T15:30:29.368Z,17.87
2019-02-26T15:31:56.883Z,17.50
2019-02-26T15:33:11.125Z,18.60
2019-02-26T15:34:13.821Z,16.35
2019-02-26T15:35:19.547Z,13.85
2019-02-26T17:45:57.086Z,12.37
2019-02-26T17:47:01.684Z,11.30
2019-02-26T17:48:09.016Z,12.45
2019-02-26T17:49:14.630Z,14.07
2019-02-26T17:50:23.730Z,13.30
2019-02-26T17:51:32.008Z,12.20
2019-02-26T17:52:40.843Z,12.50
2019-02-26T17:53:52.292Z,14.13
2019-02-26T17:55:01.151Z,13.95
2019-02-26T17:56:09.136Z,13.72
2019-02-26T17:57:13.490Z,12.00
2019-02-26T17:58:20.117Z,12.03
2019-02-26T17:59:24.384Z,12.00
2019-02-26T18:00:29.181Z,11.85
2019-02-26T18:01:35.242Z,11.88
2019-02-26T18:02:43.004Z,12.80
2019-02-26T18:03:48.704Z,12.13
2019-02-26T18:04:52.999Z,14.18
2019-02-26T18:06:00.891Z,13.85
2019-02-26T18:07:19.462Z,15.00
2019-02-26T18:10:05.475Z,13.93
2019-02-26T18:11:13.303Z,14.73
2019-02-26T18:12:18.555Z,14.83
2019-02-26T18:13:23.642Z,13.95
2019-02-26T18:14:39.434Z,13.90
2019-02-26T18:15:45.240Z,13.85
2019-02-26T18:16:52.763Z,12.75
2019-02-26T18:18:01.291Z,13.50
2019-02-26T18:19:06.958Z,14.07
2019-02-26T18:20:14.589Z,14.68
2019-02-26T18:21:23.031Z,13.10
2019-02-26T18:22:31.455Z,13.88
2019-02-26T18:23:38.684Z,13.83
2019-02-26T18:24:46.211Z,11.50
2019-02-26T18:25:53.124Z,13.25
2019-02-26T18:26:58.004Z,13.72
2019-02-26T18:28:08.693Z,14.10
2019-02-26T18:29:16.141Z,13.40